Time;durP1;ratioP1;P1;durP2;ratioP2;P2;SDS_P1;SDS_P2;PMS_P1;PMS_P2;Temp;Humidity;BMP_temperature;BMP_pressure;BME280_temperature;BME280_humidity;BME280_pressure;Samples;Min_cycle;Max_cycle;Signal;HPM_P1;HPM_P2
2023/03/31 00:01:40;;;;;;;7.82;4.35;;;14.10;54.00;;;9.53;79.46;95071.19;4955302;28;20019;-50
2023/03/31 00:04:11;;;;;;;7.43;3.72;;;14.10;54.00;;;9.48;81.15;95064.81;4951383;28;20054;-51
2023/03/31 00:06:41;;;;;;;8.57;4.10;;;14.10;54.20;;;9.53;80.52;95058.72;4919722;29;20134;-49
2023/03/31 00:09:17;;;;;;;7.50;3.60;;;14.00;54.20;;;9.47;81.16;95059.78;4919144;29;20122;-49
2023/03/31 00:11:45;;;;;;;7.78;3.78;;;14.00;54.40;;;9.41;81.42;95064.31;4918731;29;20383;-52
2023/03/31 00:14:12;;;;;;;8.43;4.10;;;14.00;54.50;;;9.43;81.21;95062.19;4918948;29;20027;-51
2023/03/31 00:16:39;;;;;;;6.78;3.83;;;13.90;54.60;;;9.36;81.90;95059.00;4935222;28;20162;-50
2023/03/31 00:19:08;;;;;;;5.13;3.85;;;13.90;54.70;;;9.43;82.00;95056.06;4935759;29;20058;-51
2023/03/31 00:21:35;;;;;;;7.97;3.78;;;13.90;54.80;;;9.35;82.34;95057.41;4918443;29;20022;-53
2023/03/31 00:24:05;;;;;;;7.45;3.47;;;13.90;54.90;;;9.43;82.35;95050.72;4926849;29;20173;-49
2023/03/31 00:26:35;;;;;;;9.50;4.15;;;13.90;55.00;;;9.45;83.17;95056.59;4935919;29;20054;-49
2023/03/31 00:29:07;;;;;;;5.13;3.20;;;13.90;55.10;;;9.43;82.70;95051.56;4918149;29;20023;-50
2023/03/31 00:31:34;;;;;;;6.63;4.00;;;13.90;55.20;;;9.44;82.86;95049.69;4935578;29;20145;-49
2023/03/31 00:34:01;;;;;;;4.68;3.90;;;13.80;55.20;;;9.41;83.31;95050.22;4920886;28;20038;-50
2023/03/31 00:36:27;;;;;;;9.32;3.75;;;13.90;55.30;;;9.36;84.19;95045.69;4954497;28;20034;-50
2023/03/31 00:39:01;;;;;;;8.10;3.85;;;13.80;55.40;;;9.38;83.74;95046.25;4937642;28;20109;-51
2023/03/31 00:41:29;;;;;;;6.60;3.80;;;13.90;55.60;;;9.38;83.78;95056.88;4953212;28;20093;-53
2023/03/31 00:44:23;;;;;;;7.68;3.72;;;13.80;55.60;;;9.40;84.12;95043.28;4954294;28;20114;-49
2023/03/31 00:47:24;;;;;;;9.85;3.55;;;13.80;55.80;;;9.40;84.41;95051.28;4927318;29;20030;-49
2023/03/31 00:49:57;;;;;;;6.13;3.60;;;13.90;55.90;;;9.40;84.39;95052.09;4919052;29;20398;-49
2023/03/31 00:52:36;;;;;;;8.30;4.00;;;13.80;55.90;;;9.40;83.91;95043.28;4923158;28;20367;-52
2023/03/31 00:55:15;;;;;;;7.93;3.88;;;13.80;55.90;;;9.38;85.20;95048.91;4920649;29;20482;-51
2023/03/31 00:57:46;;;;;;;5.70;3.35;;;13.80;55.90;;;9.21;87.08;95019.97;4934221;29;20031;-49
2023/03/31 01:00:15;;;;;;;7.00;3.80;;;13.80;55.90;;;9.21;85.94;95012.00;4917565;29;20027;-49
2023/03/31 01:02:58;;;;;;;6.50;4.07;;;13.80;55.90;;;9.30;85.50;95035.34;4918149;29;20509;-52
2023/03/31 01:05:41;;;;;;;6.25;3.70;;;13.80;56.30;;;9.33;86.25;95027.63;4918313;29;20030;-49
2023/03/31 01:08:08;;;;;;;9.45;3.70;;;13.80;56.40;;;9.33;86.98;95016.22;4918660;29;20114;-51
2023/03/31 01:10:44;;;;;;;7.00;3.90;;;13.80;56.30;;;9.32;87.26;95018.06;4924807;28;20042;-49
2023/03/31 01:13:14;;;;;;;12.05;4.60;;;13.80;56.50;;;9.26;88.47;95013.84;4937276;28;20085;-51
2023/03/31 01:15:43;;;;;;;5.63;3.83;;;13.80;56.60;;;9.26;87.32;95009.31;4935836;28;20022;-52
2023/03/31 01:18:14;;;;;;;6.75;3.80;;;13.80;56.60;;;9.21;88.14;95008.53;4936944;28;20442;-51
2023/03/31 01:21:41;;;;;;;4.68;3.80;;;13.80;56.70;;;9.21;87.05;95003.22;4937049;28;20098;-50
2023/03/31 01:25:00;;;;;;;10.60;3.65;;;13.80;56.80;;;9.22;87.00;95010.94;4926695;29;20030;-51
2023/03/31 01:28:14;;;;;;;7.82;3.85;;;13.80;56.70;;;9.21;86.96;94997.91;4934308;29;20026;-50
2023/03/31 01:31:10;;;;;;;7.35;3.90;;;13.70;56.70;;;9.18;88.18;94993.13;4919011;29;20027;-49
2023/03/31 01:34:02;;;;;;;7.72;3.88;;;13.70;56.80;;;9.16;89.05;94993.41;4914006;29;20043;-49
2023/03/31 01:37:20;;;;;;;5.95;3.63;;;13.70;56.90;;;9.13;88.73;94993.94;4916471;29;20406;-49
2023/03/31 01:40:31;;;;;;;7.25;3.85;;;13.70;57.00;;;9.13;88.81;94978.00;4913086;29;20437;-49
2023/03/31 01:43:16;;;;;;;8.85;4.22;;;13.70;57.00;;;9.11;89.31;94971.34;4934412;29;20157;-49
2023/03/31 01:46:11;;;;;;;6.72;3.70;;;13.60;57.20;;;9.03;90.56;94964.75;4933492;29;20023;-51
2023/03/31 01:49:04;;;;;;;10.60;4.20;;;13.60;57.30;;;8.98;91.12;94960.22;4933268;29;20110;-51
2023/03/31 01:52:19;;;;;;;6.25;3.70;;;13.60;57.40;;;8.96;90.92;94949.09;4934376;29;20386;-51
2023/03/31 01:55:13;;;;;;;6.20;3.40;;;13.50;57.40;;;8.94;90.75;94945.91;4918656;29;20023;-53
2023/03/31 01:58:04;;;;;;;6.35;3.72;;;13.40;57.60;;;8.89;91.19;94948.56;4913920;29;20061;-52
2023/03/31 02:00:41;;;;;;;7.15;4.43;;;13.40;57.60;;;8.86;91.34;94953.63;4915176;29;20106;-51
2023/03/31 02:03:23;;;;;;;9.93;4.40;;;13.40;57.80;;;8.84;91.27;94953.06;4913982;29;20031;-51
2023/03/31 02:06:02;;;;;;;6.22;4.07;;;13.40;57.90;;;8.83;91.57;94946.97;4931118;29;20023;-50
2023/03/31 02:08:40;;;;;;;7.50;4.60;;;13.40;58.00;;;8.83;91.83;94948.84;4933350;29;20130;-49
2023/03/31 02:11:06;;;;;;;7.65;4.65;;;13.40;58.10;;;8.80;91.71;94944.84;4924455;29;20053;-49
2023/03/31 02:13:36;;;;;;;8.15;4.28;;;13.30;58.00;;;8.78;91.96;94947.00;4936960;29;20458;-50
2023/03/31 02:16:16;;;;;;;6.50;4.20;;;13.30;58.20;;;8.75;92.95;94921.78;4935990;29;20610;-50
2023/03/31 02:18:48;;;;;;;6.00;3.50;;;13.40;58.40;;;8.71;93.43;94904.78;4936762;29;20027;-50
2023/03/31 02:21:17;;;;;;;11.30;4.15;;;13.30;58.30;;;8.68;93.51;94913.28;4938011;29;20026;-53
2023/03/31 02:23:47;;;;;;;7.60;3.97;;;13.30;58.30;;;8.65;93.15;94897.09;4928741;29;20036;-49
2023/03/31 02:26:32;;;;;;;6.30;3.65;;;13.20;58.40;;;8.62;92.65;94895.78;4919071;29;20043;-51
2023/03/31 02:28:58;;;;;;;6.55;3.80;;;13.20;58.60;;;8.57;93.33;94890.47;4928652;29;20347;-54
2023/03/31 02:32:03;;;;;;;7.13;3.78;;;13.20;58.50;;;8.60;93.47;94891.81;4936473;29;20082;-50
2023/03/31 02:34:29;;;;;;;7.57;4.22;;;13.20;58.80;;;8.53;93.53;94879.59;4929025;29;20059;-49
2023/03/31 02:36:56;;;;;;;6.78;3.90;;;13.10;58.60;;;8.58;93.72;94878.78;4918704;29;20023;-51
2023/03/31 02:39:32;;;;;;;5.70;4.10;;;13.10;58.80;;;8.56;93.86;94875.63;4917374;29;20055;-49
2023/03/31 02:42:01;;;;;;;6.78;4.05;;;13.10;59.00;;;8.47;93.82;94870.06;4917056;29;20055;-50
2023/03/31 02:44:27;;;;;;;7.50;4.13;;;13.10;59.00;;;8.49;93.82;94859.97;4917341;29;20506;-52
2023/03/31 02:46:53;;;;;;;10.55;4.47;;;13.00;59.00;;;8.49;93.95;94862.63;4923219;29;20051;-49
2023/03/31 02:49:21;;;;;;;5.47;4.05;;;13.00;59.10;;;8.44;93.49;94845.91;4918509;29;20031;-50
2023/03/31 02:52:22;;;;;;;5.63;3.53;;;13.00;59.10;;;8.41;92.98;94835.84;4917815;29;20032;-50
2023/03/31 02:55:47;;;;;;;10.05;3.80;;;13.00;59.20;;;8.44;92.92;94845.91;4917330;29;20038;-50
2023/03/31 02:59:15;;;;;;;4.97;4.00;;;13.00;59.20;;;8.49;93.69;94825.47;4903451;29;20411;-50
2023/03/31 03:02:05;;;;;;;5.43;3.53;;;13.00;59.20;;;8.44;93.03;94816.72;4918365;29;20107;-51
2023/03/31 03:05:07;;;;;;;5.93;3.63;;;13.00;59.30;;;8.43;94.76;94807.97;4917412;29;20378;-50
2023/03/31 03:07:48;;;;;;;6.03;3.83;;;13.00;59.40;;;8.43;93.24;94799.19;4918179;29;20386;-50
2023/03/31 03:11:05;;;;;;;7.53;3.80;;;13.00;59.30;;;8.46;91.86;94791.50;4916457;29;20088;-50
2023/03/31 03:14:29;;;;;;;5.57;3.83;;;13.00;59.30;;;8.44;92.07;94790.97;4916914;29;20387;-49
2023/03/31 03:17:22;;;;;;;7.88;4.00;;;12.90;59.30;;;8.52;90.32;94776.34;4927426;29;20112;-51
2023/03/31 03:20:00;;;;;;;6.72;3.28;;;13.00;59.40;;;8.54;90.44;94792.78;4936923;29;20114;-50
2023/03/31 03:22:26;;;;;;;8.40;3.70;;;13.00;59.30;;;8.55;90.94;94766.00;4928806;29;20039;-50
2023/03/31 03:24:53;;;;;;;6.68;3.63;;;13.00;59.30;;;8.57;90.49;94744.47;4917236;29;20027;-50
2023/03/31 03:27:23;;;;;;;8.18;3.50;;;13.00;59.20;;;8.55;90.05;94738.63;4917734;29;20050;-55
2023/03/31 03:29:49;;;;;;;9.95;3.92;;;12.90;59.20;;;8.52;90.67;94712.63;4902976;29;20037;-48
2023/03/31 03:32:14;;;;;;;6.80;3.65;;;13.00;59.20;;;8.62;89.79;94690.53;4920906;29;20039;-49
2023/03/31 03:34:40;;;;;;;7.13;3.75;;;13.00;59.30;;;8.65;88.67;94706.75;4935941;29;20027;-51
2023/03/31 03:37:06;;;;;;;8.15;4.00;;;13.10;59.40;;;8.70;88.61;94693.44;4936616;29;20475;-49
2023/03/31 03:39:32;;;;;;;6.15;3.42;;;13.10;59.40;;;8.71;87.51;94686.25;4919559;29;20019;-51
2023/03/31 03:41:58;;;;;;;7.80;3.60;;;13.10;59.30;;;8.76;88.34;94679.06;4935589;28;20039;-51
2023/03/31 03:44:24;;;;;;;11.07;3.72;;;13.10;59.20;;;8.78;89.04;94673.50;4919395;29;21289;-50
2023/03/31 03:46:50;;;;;;;7.68;3.90;;;13.10;59.20;;;8.80;88.79;94671.34;4944417;28;20076;-51
2023/03/31 03:49:16;;;;;;;4.90;2.97;;;13.20;59.20;;;8.77;87.58;94651.47;4954389;28;20026;-51
2023/03/31 03:51:42;;;;;;;5.68;3.30;;;13.20;59.10;;;8.87;86.68;94639.97;4954583;28;20026;-52
2023/03/31 03:54:08;;;;;;;8.93;3.22;;;13.20;59.10;;;8.91;86.83;94622.41;4936148;29;20031;-50
2023/03/31 03:56:34;;;;;;;7.78;3.55;;;13.20;59.10;;;8.96;86.56;94616.25;4936132;29;20102;-50
2023/03/31 03:59:00;;;;;;;6.53;3.17;;;13.30;59.10;;;8.99;86.14;94608.53;4935736;29;20057;-51
2023/03/31 04:01:25;;;;;;;9.77;3.63;;;13.30;59.10;;;8.93;84.88;94601.69;4934988;28;20037;-50
2023/03/31 04:03:51;;;;;;;7.78;3.60;;;13.30;58.90;;;8.98;85.61;94603.50;4943036;28;20038;-52
2023/03/31 04:06:17;;;;;;;6.68;3.78;;;13.30;58.90;;;8.94;86.22;94610.44;4947123;28;20429;-51
2023/03/31 04:08:43;;;;;;;7.88;3.40;;;13.30;58.90;;;8.95;86.64;94610.16;4954994;28;20026;-52
2023/03/31 04:11:17;;;;;;;9.80;3.70;;;13.30;58.90;;;8.94;86.77;94605.13;4938205;28;20451;-49
2023/03/31 04:13:45;;;;;;;8.43;4.03;;;13.40;58.90;;;8.92;86.91;94594.78;4918901;29;20553;-52
2023/03/31 04:16:11;;;;;;;4.90;3.35;;;13.30;58.80;;;8.88;86.70;94583.13;4918235;28;20065;-50
2023/03/31 04:18:41;;;;;;;9.23;3.55;;;13.30;58.90;;;8.86;86.28;94564.00;4943061;28;20023;-51
2023/03/31 04:21:11;;;;;;;6.80;3.17;;;13.30;58.90;;;8.89;87.00;94567.97;4954768;28;20015;-51
2023/03/31 04:23:45;;;;;;;5.38;3.35;;;13.30;58.90;;;8.88;87.30;94575.16;4930514;29;20089;-52
2023/03/31 04:26:17;;;;;;;5.25;2.70;;;13.30;58.90;;;8.85;86.54;94570.41;4935693;29;20050;-49
2023/03/31 04:28:49;;;;;;;10.85;3.65;;;13.30;59.00;;;8.87;86.94;94572.75;4926437;28;20061;-49
2023/03/31 04:31:24;;;;;;;4.75;3.22;;;13.30;58.90;;;8.89;87.71;94571.41;4938282;28;20030;-49
2023/03/31 04:33:52;;;;;;;6.55;3.28;;;13.30;58.90;;;8.88;88.46;94559.22;4937202;28;20039;-53
2023/03/31 04:36:19;;;;;;;5.32;2.95;;;13.30;59.00;;;8.85;87.89;94549.16;4940663;28;20023;-53
2023/03/31 04:38:49;;;;;;;6.30;3.30;;;13.30;59.00;;;8.84;87.94;94539.59;4935278;29;20037;-50
2023/03/31 04:41:18;;;;;;;7.38;3.65;;;13.30;59.00;;;8.83;88.55;94545.19;4934517;29;20470;-51
2023/03/31 04:43:44;;;;;;;6.63;3.30;;;13.30;59.00;;;8.81;88.44;94534.84;4935156;29;20114;-49
2023/03/31 04:46:10;;;;;;;9.85;3.20;;;13.30;59.00;;;8.78;88.07;94520.28;4917474;29;20054;-49
2023/03/31 04:48:37;;;;;;;8.27;2.92;;;13.30;59.00;;;8.79;88.45;94529.03;4935027;29;20457;-51
2023/03/31 04:51:04;;;;;;;5.72;3.08;;;13.30;59.10;;;8.77;88.11;94520.53;4918159;29;20053;-49
2023/03/31 04:53:30;;;;;;;6.75;3.10;;;13.20;59.00;;;8.73;88.02;94520.28;4943773;28;20039;-51
2023/03/31 04:55:56;;;;;;;5.88;3.35;;;13.20;59.10;;;8.75;87.65;94522.69;4935068;29;20027;-49
2023/03/31 04:58:22;;;;;;;8.85;3.08;;;13.20;59.10;;;8.77;87.56;94512.56;4917396;29;20117;-49
2023/03/31 05:00:48;;;;;;;7.03;3.35;;;13.20;59.10;;;8.75;88.68;94510.19;4933721;29;20030;-50
2023/03/31 05:03:14;;;;;;;4.07;3.05;;;13.20;59.10;;;8.73;88.67;94485.78;4934421;29;20494;-49
2023/03/31 05:05:40;;;;;;;4.10;2.97;;;13.20;59.10;;;8.71;89.13;94482.63;4913283;29;20031;-53
2023/03/31 05:08:06;;;;;;;4.18;2.65;;;13.20;59.10;;;8.62;89.23;94486.13;4934646;29;20401;-51
2023/03/31 05:10:32;;;;;;;9.05;3.10;;;13.20;59.10;;;8.57;88.16;94484.34;4940103;28;20034;-50
2023/03/31 05:12:58;;;;;;;7.60;3.05;;;13.20;59.10;;;8.52;86.93;94482.53;4953841;28;20031;-49
2023/03/31 05:15:24;;;;;;;4.93;2.80;;;13.10;59.10;;;8.58;86.94;94473.44;4953945;28;20057;-50
2023/03/31 05:17:51;;;;;;;7.55;2.63;;;13.10;59.10;;;8.62;85.45;94475.53;4936185;28;20500;-50
2023/03/31 05:20:19;;;;;;;4.22;2.50;;;13.20;59.10;;;8.69;84.74;94468.84;4934742;29;20485;-48
2023/03/31 05:22:46;;;;;;;3.40;2.05;;;13.20;59.10;;;8.72;83.48;94468.28;4921361;29;20476;-51
2023/03/31 05:25:17;;;;;;;6.07;2.75;;;13.10;59.00;;;8.77;83.85;94481.53;4917321;29;20549;-48
2023/03/31 05:27:46;;;;;;;6.90;2.80;;;13.20;59.10;;;8.85;82.79;94479.31;4917647;29;20031;-51
2023/03/31 05:30:14;;;;;;;5.38;2.72;;;13.20;58.90;;;8.87;82.10;94472.66;4917446;29;20035;-49
2023/03/31 05:32:41;;;;;;;4.97;2.83;;;13.20;58.80;;;8.92;82.59;94471.81;4940860;23;20031;-53
2023/03/31 05:35:08;;;;;;;3.60;2.80;;;13.30;58.80;;;8.95;82.21;94474.69;5010358;28;20041;-56
2023/03/31 05:37:34;;;;;;;3.70;2.40;;;13.30;58.70;;;8.94;81.93;94475.00;5012893;28;20123;-48
2023/03/31 05:40:00;;;;;;;8.00;2.90;;;13.30;58.60;;;8.97;81.50;94479.75;5012255;28;20025;-49
2023/03/31 05:42:26;;;;;;;5.82;2.78;;;13.40;58.50;;;8.99;81.69;94494.34;5011436;28;20115;-51
2023/03/31 05:44:52;;;;;;;4.78;2.80;;;13.40;58.40;;;9.02;81.94;94509.72;4993934;28;20029;-53
2023/03/31 05:47:18;;;;;;;5.30;2.80;;;13.40;58.30;;;9.07;81.30;94518.69;4974600;28;20025;-47
2023/03/31 05:49:44;;;;;;;5.72;2.58;;;13.50;58.30;;;9.11;81.17;94523.16;4992835;28;20036;-47
2023/03/31 05:52:10;;;;;;;6.88;2.70;;;13.50;58.30;;;9.10;80.95;94518.91;4992155;28;20072;-53
2023/03/31 05:54:36;;;;;;;6.43;2.90;;;13.50;58.20;;;9.13;81.23;94501.63;4939529;28;22864;-52
2023/03/31 05:57:03;;;;;;;8.73;3.00;;;13.50;58.10;;;9.15;82.09;94507.44;4975621;28;20584;-49
2023/03/31 05:59:29;;;;;;;6.88;3.20;;;13.50;58.10;;;9.14;82.21;94493.38;4992089;28;20025;-52
2023/03/31 06:01:55;;;;;;;7.53;3.88;;;13.60;58.10;;;9.16;83.70;94485.91;4992429;28;20152;-51
2023/03/31 06:04:21;;;;;;;5.00;2.97;;;13.60;58.20;;;9.15;83.31;94476.38;4988672;28;20121;-52
2023/03/31 06:06:49;;;;;;;9.07;2.88;;;13.60;58.70;;;9.16;83.19;94477.94;4992598;28;20021;-51
2023/03/31 06:09:16;;;;;;;7.85;2.95;;;13.60;58.20;;;9.14;86.10;94468.66;4989840;28;20457;-48
2023/03/31 06:11:42;;;;;;;5.47;2.70;;;13.60;58.20;;;9.07;88.59;94470.88;4988695;28;20048;-53
2023/03/31 06:14:08;;;;;;;7.78;2.97;;;13.70;58.30;;;9.01;88.73;94468.25;4991838;28;20037;-53
2023/03/31 06:16:34;;;;;;;4.15;3.15;;;13.60;58.40;;;8.96;89.30;94478.94;4991084;28;20025;-54
2023/03/31 06:19:00;;;;;;;4.47;3.10;;;13.60;58.50;;;8.95;89.33;94485.31;4974784;28;20076;-53
2023/03/31 06:21:26;;;;;;;6.43;3.40;;;13.60;58.60;;;8.89;89.14;94502.38;4992181;28;20029;-48
2023/03/31 06:23:54;;;;;;;11.68;3.28;;;13.60;58.70;;;8.89;89.56;94510.34;4990888;28;20038;-51
2023/03/31 06:26:21;;;;;;;7.28;3.03;;;13.60;58.80;;;8.87;87.50;94507.19;4992309;28;20036;-53
2023/03/31 06:28:48;;;;;;;6.13;3.35;;;13.50;58.90;;;8.96;87.41;94496.72;4990755;28;20065;-55
2023/03/31 06:31:23;;;;;;;5.97;3.30;;;13.50;58.90;;;9.03;87.65;94499.88;4991928;28;20053;-53
2023/03/31 06:33:50;;;;;;;6.55;3.30;;;13.50;59.00;;;9.09;87.47;94500.59;4990298;28;20045;-52
2023/03/31 06:36:21;;;;;;;5.95;3.28;;;13.60;59.00;;;9.12;87.81;94508.00;4992044;28;20113;-53
2023/03/31 06:38:49;;;;;;;12.65;3.70;;;13.60;59.10;;;9.18;87.91;94513.00;4991900;28;20091;-53
2023/03/31 06:41:19;;;;;;;7.95;3.80;;;13.60;59.20;;;9.21;87.53;94512.44;4990660;28;20029;-52
2023/03/31 06:43:45;;;;;;;8.23;3.58;;;13.70;59.20;;;9.29;87.53;94515.56;4991988;28;20508;-53
2023/03/31 06:46:12;;;;;;;10.73;4.63;;;13.80;59.20;;;9.40;86.02;94501.88;4990881;28;20445;-54
2023/03/31 06:48:38;;;;;;;7.97;3.53;;;13.90;59.10;;;9.53;85.49;94504.91;4992066;28;20026;-53
2023/03/31 06:51:07;;;;;;;6.57;2.90;;;14.00;59.00;;;9.64;86.05;94499.19;4991880;28;20028;-53
2023/03/31 06:53:34;;;;;;;5.63;3.28;;;14.20;59.00;;;9.76;85.17;94498.00;4990816;28;20057;-53
2023/03/31 06:56:01;;;;;;;8.18;3.13;;;14.30;58.90;;;9.86;84.09;94508.50;4991928;28;20057;-53
2023/03/31 06:58:27;;;;;;;4.72;3.00;;;14.40;58.80;;;10.01;83.98;94513.63;4991689;28;20477;-53
2023/03/31 07:00:53;;;;;;;8.35;3.33;;;14.50;58.60;;;10.10;84.33;94517.22;4994283;28;20120;-49
2023/03/31 07:03:23;;;;;;;8.25;3.35;;;14.60;58.60;;;10.16;83.27;94529.38;4995016;28;20038;-52
2023/03/31 07:05:52;;;;;;;9.63;3.40;;;14.70;58.50;;;10.29;82.80;94537.78;4994557;28;20048;-51
2023/03/31 07:08:19;;;;;;;7.75;3.30;;;14.90;58.40;;;10.41;81.99;94554.09;4995101;28;20040;-52
2023/03/31 07:10:47;;;;;;;6.38;2.97;;;14.90;58.30;;;10.46;81.71;94548.69;4979947;28;20421;-50
2023/03/31 07:13:17;;;;;;;7.15;2.85;;;15.00;58.20;;;10.55;81.48;94568.25;4975747;28;20080;-56
2023/03/31 07:15:47;;;;;;;7.70;3.05;;;15.00;58.20;;;10.60;81.32;94552.22;4959169;28;20549;-51
2023/03/31 07:18:14;;;;;;;8.50;3.55;;;15.00;58.10;;;10.65;80.35;94556.66;4996064;28;20022;-51
2023/03/31 07:20:42;;;;;;;5.72;2.67;;;15.10;58.00;;;10.71;79.13;94544.06;4995973;28;20105;-50
2023/03/31 07:23:08;;;;;;;7.38;2.80;;;15.10;57.80;;;10.84;78.51;94552.13;4994704;28;20036;-49
2023/03/31 07:25:36;;;;;;;4.60;2.92;;;15.20;57.60;;;10.92;79.01;94565.88;4996397;28;20025;-52
2023/03/31 07:28:05;;;;;;;7.32;3.08;;;15.40;57.50;;;11.01;76.34;94564.13;4995197;28;20041;-51
2023/03/31 07:30:32;;;;;;;8.13;2.70;;;15.50;57.20;;;11.12;76.41;94560.19;4978682;28;20040;-52
2023/03/31 07:32:58;;;;;;;7.68;3.25;;;15.60;56.80;;;11.24;75.94;94552.53;4995703;28;20038;-51
2023/03/31 07:35:24;;;;;;;9.68;3.50;;;15.80;56.70;;;11.33;73.08;94542.75;4994779;28;20022;-48
2023/03/31 07:37:51;;;;;;;9.57;3.22;;;15.90;56.20;;;11.47;73.81;94545.47;4996458;28;20420;-49
2023/03/31 07:40:26;;;;;;;6.70;3.17;;;16.00;55.90;;;11.56;73.10;94545.56;4994773;28;20029;-53
2023/03/31 07:42:52;;;;;;;5.50;3.40;;;16.10;55.80;;;11.60;73.18;94546.56;4995716;28;20112;-47
2023/03/31 07:45:24;;;;;;;8.40;3.22;;;16.20;55.60;;;11.64;71.69;94542.22;4996025;28;20045;-49
2023/03/31 07:47:51;;;;;;;7.15;3.40;;;16.20;55.40;;;11.74;72.05;94559.88;4994728;28;20025;-52
2023/03/31 07:50:18;;;;;;;5.80;3.78;;;16.30;55.20;;;11.77;69.89;94549.41;4995868;28;20040;-49
2023/03/31 07:52:44;;;;;;;7.80;3.70;;;16.40;54.90;;;11.81;70.62;94530.94;4977160;28;20476;-49
2023/03/31 07:55:11;;;;;;;7.57;3.35;;;16.40;54.60;;;11.90;70.38;94529.19;4994223;28;20029;-54
2023/03/31 07:57:37;;;;;;;5.03;2.72;;;16.50;54.40;;;11.98;69.19;94531.16;4994059;28;20384;-54
2023/03/31 08:00:11;;;;;;;7.68;3.17;;;16.60;54.20;;;12.08;69.72;94537.38;4991712;28;20034;-55
2023/03/31 08:02:39;;;;;;;6.57;3.03;;;16.70;54.10;;;12.17;69.70;94543.59;4993329;28;20021;-55
2023/03/31 08:05:06;;;;;;;5.43;2.70;;;16.70;54.00;;;12.18;70.86;94532.59;4992764;28;20502;-55
2023/03/31 08:07:40;;;;;;;7.75;3.28;;;16.70;53.90;;;12.19;70.15;94536.06;4993917;28;20384;-52
2023/03/31 08:10:12;;;;;;;7.40;2.90;;;16.80;53.90;;;12.14;69.82;94523.63;4992466;28;20045;-54
2023/03/31 08:12:38;;;;;;;5.13;2.78;;;16.80;53.70;;;12.24;69.99;94512.72;4993667;28;20018;-55
2023/03/31 08:15:05;;;;;;;6.47;3.00;;;16.80;53.70;;;12.23;70.62;94518.38;4993447;28;20040;-53
2023/03/31 08:17:31;;;;;;;7.88;3.30;;;16.80;53.60;;;12.26;70.37;94525.78;4992684;28;20030;-52
2023/03/31 08:19:57;;;;;;;7.63;3.13;;;16.80;53.60;;;12.28;71.01;94539.59;4993483;28;20040;-56
2023/03/31 08:22:22;;;;;;;5.78;3.20;;;16.90;53.50;;;12.36;70.92;94546.13;4991828;28;20160;-53
2023/03/31 08:24:48;;;;;;;7.30;2.58;;;17.00;53.50;;;12.42;71.13;94543.03;4993253;28;20503;-55
2023/03/31 08:27:14;;;;;;;5.57;2.88;;;17.10;53.50;;;12.48;72.89;94547.19;4993372;28;20018;-52
2023/03/31 08:29:40;;;;;;;6.90;4.00;;;17.20;53.50;;;12.50;73.39;94552.22;4976801;28;20030;-55
2023/03/31 08:32:06;;;;;;;4.78;3.10;;;17.30;53.50;;;12.47;74.33;94550.94;4973922;28;20358;-52
2023/03/31 08:34:32;;;;;;;6.10;2.83;;;17.40;53.50;;;12.60;74.10;94559.22;4978962;28;20056;-52
2023/03/31 08:36:58;;;;;;;6.55;3.30;;;17.50;53.50;;;12.58;73.94;94550.72;4993163;28;20029;-50
2023/03/31 08:39:24;;;;;;;6.00;2.70;;;17.70;53.40;;;12.67;73.16;94556.91;4993141;28;20128;-56
2023/03/31 08:42:09;;;;;;;9.25;3.10;;;17.90;53.20;;;12.86;72.44;94554.88;4991983;28;20018;-53
2023/03/31 08:45:03;;;;;;;3.95;2.38;;;18.10;52.90;;;12.96;71.73;94546.59;4976877;28;20053;-54
2023/03/31 08:47:35;;;;;;;3.47;2.58;;;18.30;52.70;;;13.03;72.76;94548.84;4991954;28;20408;-53
2023/03/31 08:50:20;;;;;;;4.75;2.60;;;18.30;52.70;;;13.01;71.61;94552.94;4993079;28;20056;-53
2023/03/31 08:53:12;;;;;;;8.27;2.80;;;18.30;52.50;;;13.13;73.20;94556.63;4991582;28;20033;-54
2023/03/31 08:55:52;;;;;;;5.70;2.42;;;18.60;52.40;;;13.15;72.65;94553.63;4972390;28;20092;-54
2023/03/31 08:58:45;;;;;;;3.33;2.10;;;18.70;52.20;;;13.26;72.25;94560.34;4976188;28;20021;-55
2023/03/31 09:01:39;;;;;;;5.68;2.50;;;18.80;52.10;;;13.32;71.99;94535.06;4991847;28;20061;-55
2023/03/31 09:05:05;;;;;;;4.47;2.33;;;18.90;51.80;;;13.32;71.19;94531.59;4991767;28;20374;-54
2023/03/31 09:07:48;;;;;;;5.85;2.50;;;18.90;51.70;;;13.37;71.92;94529.56;4992919;28;20044;-51
2023/03/31 09:10:30;;;;;;;4.05;2.00;;;19.00;51.70;;;13.30;70.98;94531.13;4991648;28;20087;-55
2023/03/31 09:13:46;;;;;;;4.47;2.08;;;19.00;51.50;;;13.42;71.79;94521.41;4991486;28;20025;-55
2023/03/31 09:16:34;;;;;;;6.53;2.50;;;19.00;51.40;;;13.58;71.74;94532.50;4991746;28;20121;-54
2023/03/31 09:19:02;;;;;;;5.22;1.92;;;19.20;51.40;;;13.72;71.20;94539.63;4992726;28;20484;-54
2023/03/31 09:21:42;;;;;;;3.75;2.08;;;19.20;51.30;;;13.77;72.08;94536.81;4983933;28;20041;-56
2023/03/31 09:24:43;;;;;;;4.28;2.22;;;19.20;51.50;;;13.69;71.25;94524.19;4978887;28;20057;-57
2023/03/31 09:27:11;;;;;;;4.97;1.90;;;19.20;51.60;;;13.62;71.36;94524.63;4984392;28;20034;-52
2023/03/31 09:29:43;;;;;;;8.18;2.40;;;19.10;51.40;;;13.51;71.37;94518.78;4974057;28;20025;-53
2023/03/31 09:32:29;;;;;;;4.15;2.33;;;19.10;51.20;;;13.48;71.19;94495.31;4970684;28;20117;-54
2023/03/31 09:35:21;;;;;;;3.58;1.90;;;19.00;51.20;;;13.50;71.89;94486.97;4975919;28;20381;-52
2023/03/31 09:37:48;;;;;;;7.78;2.13;;;18.90;51.40;;;13.45;72.73;94476.44;4956545;28;20103;-55
2023/03/31 09:40:26;;;;;;;4.32;2.00;;;18.80;51.60;;;13.79;72.34;94479.22;4955172;28;20044;-52
2023/03/31 09:43:13;;;;;;;4.90;2.25;;;19.10;51.50;;;14.30;72.98;94490.31;4968664;28;20085;-49
2023/03/31 09:45:39;;;;;;;3.60;2.22;;;19.90;51.40;;;14.65;69.97;94503.75;4956148;28;20033;-51
2023/03/31 09:48:22;;;;;;;5.40;2.85;;;20.40;50.90;;;14.86;68.16;94499.34;4989833;28;20025;-52
2023/03/31 09:51:03;;;;;;;3.78;2.30;;;21.00;50.40;;;14.99;68.07;94510.97;4974166;28;20030;-54
2023/03/31 09:54:08;;;;;;;6.15;2.40;;;21.30;49.70;;;15.01;67.86;94520.28;4990758;28;20030;-53
2023/03/31 09:56:49;;;;;;;3.47;2.10;;;21.50;49.20;;;15.03;66.83;94488.56;4991742;28;20499;-53
2023/03/31 09:59:33;;;;;;;5.68;2.30;;;21.70;48.80;;;15.32;65.19;94454.09;4990498;28;20045;-55
2023/03/31 10:02:40;;;;;;;5.82;2.60;;;21.90;48.30;;;15.70;64.83;94472.91;4991398;28;20028;-53
2023/03/31 10:05:27;;;;;;;4.07;2.17;;;22.40;47.90;;;15.68;62.85;94459.03;4911915;29;20035;-55
2023/03/31 10:08:30;;;;;;;4.65;2.05;;;22.70;47.20;;;15.56;62.86;94483.03;4968658;28;20091;-51
2023/03/31 10:11:10;;;;;;;3.78;1.95;;;22.70;46.70;;;15.59;62.80;94474.34;4969666;28;20022;-51
2023/03/31 10:14:14;;;;;;;5.03;2.10;;;22.70;46.40;;;15.19;64.42;94471.97;4955310;28;20034;-52
2023/03/31 10:16:54;;;;;;;4.40;1.98;;;22.40;46.30;;;15.25;64.74;94471.47;4977984;28;20060;-56
2023/03/31 10:19:27;;;;;;;5.20;2.28;;;22.10;46.60;;;15.16;64.33;94457.28;4990677;28;20025;-55
2023/03/31 10:22:20;;;;;;;5.05;2.00;;;21.90;46.40;;;15.47;64.63;94446.28;4990838;28;20030;-55
2023/03/31 10:24:49;;;;;;;4.95;1.80;;;22.00;46.50;;;15.25;61.45;94425.09;4990367;28;20026;-56
2023/03/31 10:27:33;;;;;;;3.15;1.92;;;22.00;46.00;;;15.53;61.28;94430.78;4974342;28;20152;-55
2023/03/31 10:30:07;;;;;;;5.03;2.00;;;22.20;45.90;;;15.60;60.60;94414.19;4989773;28;20080;-55
2023/03/31 10:32:41;;;;;;;3.42;1.67;;;22.50;45.50;;;15.76;59.91;94419.81;4991326;28;20026;-53
2023/03/31 10:35:35;;;;;;;7.10;2.78;;;22.60;45.30;;;15.69;59.54;94418.41;4994476;28;20044;-50
2023/03/31 10:38:15;;;;;;;9.30;5.43;;;22.60;44.80;;;15.91;60.61;94398.53;4976745;28;20041;-49
2023/03/31 10:40:56;;;;;;;5.25;2.20;;;22.50;44.80;;;16.11;59.77;94404.28;4994522;28;20033;-53
2023/03/31 10:43:48;;;;;;;6.70;2.20;;;22.50;45.00;;;16.13;60.82;94402.81;4994009;28;20032;-54
2023/03/31 10:46:14;;;;;;;4.32;1.90;;;22.20;45.30;;;15.62;59.26;94423.50;4994624;28;20099;-51
2023/03/31 10:48:43;;;;;;;6.68;1.80;;;21.90;45.30;;;15.17;60.31;94407.16;4995201;28;20029;-53
2023/03/31 10:51:27;;;;;;;4.30;1.60;;;21.60;45.30;;;14.87;61.17;94411.66;4995086;28;20448;-52
2023/03/31 10:54:02;;;;;;;2.60;1.20;;;21.10;45.50;;;14.36;61.62;94389.97;4994284;28;20018;-49
2023/03/31 10:56:45;;;;;;;2.67;1.30;;;20.70;45.60;;;13.69;63.32;94409.13;4995338;28;20492;-54